Time;durP1;ratioP1;P1;durP2;ratioP2;P2;SDS_P1;SDS_P2;PMS_P1;PMS_P2;Temp;Humidity;BMP_temperature;BMP_pressure;BME280_temperature;BME280_humidity;BME280_pressure;Samples;Min_cycle;Max_cycle;Signal;HPM_P1;HPM_P2
2024/01/12 00:00:26;;;;;;;18.75;14.25;;;;;;;;;;10251232;28;20080;-61
2024/01/12 00:05:24;;;;;;;26.65;17.50;;;;;;;;;;10250572;28;20069;-61
2024/01/12 00:10:23;;;;;;;35.03;21.10;;;;;;;;;;10251306;28;20072;-61
2024/01/12 00:15:21;;;;;;;24.67;16.83;;;;;;;;;;10239585;28;20060;-61
2024/01/12 00:20:21;;;;;;;26.13;16.30;;;;;;;;;;10250122;28;20459;-61
2024/01/12 00:25:19;;;;;;;27.08;16.05;;;;;;;;;;10250869;28;20159;-60
2024/01/12 00:30:18;;;;;;;26.55;17.17;;;;;;;;;;10251337;28;20096;-61
2024/01/12 00:35:16;;;;;;;35.45;23.05;;;;;;;;;;10248733;28;20076;-61
2024/01/12 00:40:16;;;;;;;25.45;15.55;;;;;;;;;;10246435;28;20070;-61
2024/01/12 00:45:14;;;;;;;25.13;15.77;;;;;;;;;;10247247;28;20085;-61
2024/01/12 00:50:12;;;;;;;22.08;15.80;;;;;;;;;;10248147;28;20077;-61
2024/01/12 00:55:10;;;;;;;23.25;16.70;;;;;;;;;;10247912;28;20084;-60
2024/01/12 01:00:11;;;;;;;21.20;14.60;;;;;;;;;;10250399;28;20091;-60
2024/01/12 01:05:09;;;;;;;23.05;16.73;;;;;;;;;;10250411;28;20092;-60
2024/01/12 01:10:07;;;;;;;25.17;16.27;;;;;;;;;;10248702;28;20091;-60
2024/01/12 01:15:07;;;;;;;25.20;16.15;;;;;;;;;;10248655;28;20065;-60
2024/01/12 01:20:07;;;;;;;22.70;14.85;;;;;;;;;;10249812;28;20069;-60
2024/01/12 01:25:06;;;;;;;23.05;15.48;;;;;;;;;;10250370;28;20080;-60
2024/01/12 01:30:05;;;;;;;22.83;14.88;;;;;;;;;;10252301;28;20096;-60
2024/01/12 01:35:04;;;;;;;20.70;13.73;;;;;;;;;;10248901;28;20088;-60
2024/01/12 01:40:06;;;;;;;21.05;14.73;;;;;;;;;;10246260;28;20069;-61
2024/01/12 01:45:04;;;;;;;25.38;14.65;;;;;;;;;;10242703;28;20811;-61
2024/01/12 01:50:03;;;;;;;21.58;15.07;;;;;;;;;;10243961;28;20060;-61
2024/01/12 01:55:03;;;;;;;21.05;14.88;;;;;;;;;;10247706;28;20068;-61
2024/01/12 02:00:02;;;;;;;20.65;13.88;;;;;;;;;;10248229;28;20095;-61
2024/01/12 02:05:09;;;;;;;20.95;13.60;;;;;;;;;;10257487;28;20077;-61
2024/01/12 02:10:09;;;;;;;66.47;35.63;;;;;;;;;;10247423;28;20062;-61
2024/01/12 02:15:08;;;;;;;48.33;28.67;;;;;;;;;;10249306;28;20042;-59
2024/01/12 02:20:07;;;;;;;24.63;16.88;;;;;;;;;;10246767;28;20072;-60
2024/01/12 02:25:08;;;;;;;28.17;17.25;;;;;;;;;;10246399;28;20072;-62
2024/01/12 02:30:07;;;;;;;23.08;16.25;;;;;;;;;;10246944;28;20041;-60
2024/01/12 02:35:06;;;;;;;22.75;15.90;;;;;;;;;;10247922;28;20468;-61
2024/01/12 02:40:04;;;;;;;21.63;13.70;;;;;;;;;;10248652;28;20513;-61
2024/01/12 02:45:04;;;;;;;17.10;13.05;;;;;;;;;;10242034;28;20506;-61
2024/01/12 02:50:04;;;;;;;19.63;14.43;;;;;;;;;;10245632;28;20080;-62
2024/01/12 02:55:03;;;;;;;16.58;12.60;;;;;;;;;;10246249;28;20077;-61
2024/01/12 03:00:01;;;;;;;21.25;13.55;;;;;;;;;;10244868;28;20172;-61
2024/01/12 03:05:06;;;;;;;19.33;13.75;;;;;;;;;;10243271;28;20620;-61
2024/01/12 03:10:05;;;;;;;18.30;12.25;;;;;;;;;;10243190;28;20054;-60
2024/01/12 03:15:04;;;;;;;21.73;15.30;;;;;;;;;;10246681;28;20041;-59
2024/01/12 03:20:05;;;;;;;21.23;13.70;;;;;;;;;;10245675;28;20080;-60
2024/01/12 03:25:05;;;;;;;20.35;14.93;;;;;;;;;;10243965;28;20073;-60
2024/01/12 03:30:03;;;;;;;25.25;16.33;;;;;;;;;;10246208;28;20073;-60
2024/01/12 03:35:03;;;;;;;31.33;21.23;;;;;;;;;;10244527;28;20080;-60
2024/01/12 03:40:01;;;;;;;29.85;18.98;;;;;;;;;;10248964;28;20526;-59
2024/01/12 03:45:01;;;;;;;15.95;12.30;;;;;;;;;;10247194;28;20088;-60
2024/01/12 03:49:59;;;;;;;18.08;13.27;;;;;;;;;;10246774;28;20464;-60
2024/01/12 03:54:58;;;;;;;24.73;18.02;;;;;;;;;;10254186;28;20045;-61
2024/01/12 03:59:56;;;;;;;20.95;15.05;;;;;;;;;;10254882;28;20080;-60
2024/01/12 04:04:56;;;;;;;20.55;14.85;;;;;;;;;;10253754;28;20065;-60
2024/01/12 04:09:54;;;;;;;24.17;16.13;;;;;;;;;;10253252;28;20080;-60
2024/01/12 04:14:52;;;;;;;21.48;15.00;;;;;;;;;;10253380;28;20069;-60
2024/01/12 04:19:51;;;;;;;29.20;20.05;;;;;;;;;;10251439;28;20073;-60
2024/01/12 04:24:50;;;;;;;20.00;13.10;;;;;;;;;;10251902;28;20493;-60
2024/01/12 04:29:49;;;;;;;30.33;17.40;;;;;;;;;;10250376;28;20069;-59
2024/01/12 04:34:47;;;;;;;33.38;19.48;;;;;;;;;;10249930;28;20525;-60
2024/01/12 04:39:45;;;;;;;22.88;15.88;;;;;;;;;;10245520;28;20103;-61
2024/01/12 04:44:45;;;;;;;27.50;17.13;;;;;;;;;;10246673;28;20089;-60
2024/01/12 04:49:43;;;;;;;49.83;33.58;;;;;;;;;;10247560;28;20080;-61
2024/01/12 04:54:41;;;;;;;22.00;17.17;;;;;;;;;;10247807;28;20076;-61
2024/01/12 04:59:40;;;;;;;42.63;27.40;;;;;;;;;;10249937;28;20490;-60
2024/01/12 05:04:40;;;;;;;24.20;16.05;;;;;;;;;;10245357;28;20077;-61
2024/01/12 05:09:38;;;;;;;30.95;18.42;;;;;;;;;;10249365;28;20073;-60
2024/01/12 05:14:37;;;;;;;25.67;17.73;;;;;;;;;;10243806;28;20079;-61
2024/01/12 05:19:35;;;;;;;24.48;17.48;;;;;;;;;;10252402;28;20147;-61
2024/01/12 05:24:35;;;;;;;27.13;19.25;;;;;;;;;;10247063;28;20676;-60
2024/01/12 05:29:33;;;;;;;31.17;23.08;;;;;;;;;;10246278;28;20041;-60
2024/01/12 05:34:31;;;;;;;24.77;19.30;;;;;;;;;;10245608;28;20548;-60
2024/01/12 05:39:30;;;;;;;25.42;17.90;;;;;;;;;;10247812;28;20065;-59
2024/01/12 05:44:30;;;;;;;24.48;17.35;;;;;;;;;;10235559;28;20088;-60
2024/01/12 05:49:28;;;;;;;25.45;20.02;;;;;;;;;;10243745;28;20075;-59
2024/01/12 05:54:26;;;;;;;20.08;14.60;;;;;;;;;;10240224;28;20071;-59
2024/01/12 05:59:24;;;;;;;21.48;15.48;;;;;;;;;;10245641;28;20087;-59
2024/01/12 06:04:24;;;;;;;22.55;15.85;;;;;;;;;;10241658;28;20065;-61
2024/01/12 06:09:22;;;;;;;28.13;17.40;;;;;;;;;;10239390;28;20077;-60
2024/01/12 06:14:20;;;;;;;20.17;16.35;;;;;;;;;;10243677;28;20065;-60
2024/01/12 06:19:19;;;;;;;30.70;21.48;;;;;;;;;;10244064;28;20060;-60
2024/01/12 06:24:18;;;;;;;21.05;17.10;;;;;;;;;;10239522;28;20064;-60
2024/01/12 06:29:16;;;;;;;22.85;16.85;;;;;;;;;;10241590;28;20091;-61
2024/01/12 06:34:15;;;;;;;23.48;15.73;;;;;;;;;;10239587;28;20081;-60
2024/01/12 06:39:13;;;;;;;25.02;18.63;;;;;;;;;;10239963;28;20587;-61
2024/01/12 06:44:13;;;;;;;31.20;19.50;;;;;;;;;;10240186;28;20084;-60
2024/01/12 06:49:11;;;;;;;25.45;18.95;;;;;;;;;;10239914;28;20081;-62
2024/01/12 06:54:10;;;;;;;21.08;16.13;;;;;;;;;;10243160;28;20073;-60
2024/01/12 06:59:09;;;;;;;21.50;16.90;;;;;;;;;;10238751;28;20085;-61
2024/01/12 07:04:09;;;;;;;24.20;15.98;;;;;;;;;;10241628;28;20076;-61
2024/01/12 07:09:11;;;;;;;29.00;20.80;;;;;;;;;;10239250;28;20081;-61
2024/01/12 07:14:10;;;;;;;34.55;26.33;;;;;;;;;;10238477;28;20075;-61
2024/01/12 07:19:10;;;;;;;24.75;20.17;;;;;;;;;;10242175;28;20070;-61
2024/01/12 07:24:09;;;;;;;29.88;23.58;;;;;;;;;;10238467;28;21935;-61
2024/01/12 07:29:07;;;;;;;21.13;16.23;;;;;;;;;;10234202;28;20057;-61
2024/01/12 07:34:06;;;;;;;20.95;15.13;;;;;;;;;;10235071;28;20164;-61
2024/01/12 07:39:07;;;;;;;21.08;14.85;;;;;;;;;;10233931;28;20487;-62
2024/01/12 07:44:07;;;;;;;23.77;18.75;;;;;;;;;;10238043;28;20088;-61
2024/01/12 07:49:05;;;;;;;25.33;20.40;;;;;;;;;;10229888;28;20101;-61
2024/01/12 07:54:04;;;;;;;42.97;29.10;;;;;;;;;;10241636;28;20089;-60
2024/01/12 07:59:03;;;;;;;43.58;31.60;;;;;;;;;;10243125;28;20072;-61
2024/01/12 08:04:02;;;;;;;39.20;28.35;;;;;;;;;;10241566;28;20081;-61
2024/01/12 08:09:01;;;;;;;37.83;27.65;;;;;;;;;;10246780;28;20523;-60
2024/01/12 08:13:59;;;;;;;37.03;26.70;;;;;;;;;;10245751;28;20456;-61
2024/01/12 08:18:59;;;;;;;21.65;17.42;;;;;;;;;;10226201;28;20065;-61
2024/01/12 08:23:58;;;;;;;32.13;22.55;;;;;;;;;;10243512;28;20069;-60
2024/01/12 08:29:01;;;;;;;34.42;22.60;;;;;;;;;;10242431;28;20503;-61
2024/01/12 08:34:01;;;;;;;33.47;23.88;;;;;;;;;;10247294;28;20076;-60
2024/01/12 08:38:59;;;;;;;27.80;21.67;;;;;;;;;;10245536;28;20076;-61
2024/01/12 08:43:57;;;;;;;28.73;21.30;;;;;;;;;;10244816;28;20525;-61
2024/01/12 08:48:56;;;;;;;27.58;20.70;;;;;;;;;;10244979;28;20553;-61
2024/01/12 08:53:56;;;;;;;35.42;25.05;;;;;;;;;;10245757;28;20077;-61
2024/01/12 08:58:54;;;;;;;31.08;24.02;;;;;;;;;;10246580;28;20075;-61
2024/01/12 09:03:52;;;;;;;34.47;25.60;;;;;;;;;;10248643;28;20080;-60
2024/01/12 09:08:53;;;;;;;57.50;35.47;;;;;;;;;;10251996;28;20095;-61
2024/01/12 09:13:52;;;;;;;33.10;21.98;;;;;;;;;;10250059;28;20080;-61
2024/01/12 09:18:51;;;;;;;50.63;29.48;;;;;;;;;;10248609;28;20124;-61
2024/01/12 09:23:49;;;;;;;46.63;28.27;;;;;;;;;;10247632;28;20534;-62
2024/01/12 09:28:47;;;;;;;61.80;33.78;;;;;;;;;;10246469;28;20080;-61
2024/01/12 09:33:47;;;;;;;54.95;33.42;;;;;;;;;;10248751;28;20075;-61
2024/01/12 09:38:46;;;;;;;81.35;48.80;;;;;;;;;;10249102;28;20075;-61
2024/01/12 09:43:45;;;;;;;44.15;29.65;;;;;;;;;;10248230;28;20076;-61
2024/01/12 09:48:43;;;;;;;38.88;26.48;;;;;;;;;;10249408;28;20095;-60
2024/01/12 09:53:44;;;;;;;42.95;30.60;;;;;;;;;;10249245;28;20625;-61
2024/01/12 09:58:43;;;;;;;46.20;29.25;;;;;;;;;;10249050;28;20080;-61
2024/01/12 10:03:44;;;;;;;27.02;19.23;;;;;;;;;;10246667;28;20072;-60
2024/01/12 10:08:43;;;;;;;25.33;20.02;;;;;;;;;;10248278;28;20088;-60
2024/01/12 10:13:42;;;;;;;33.88;21.90;;;;;;;;;;10232141;28;20083;-61
2024/01/12 10:18:42;;;;;;;45.38;33.92;;;;;;;;;;10247510;28;20075;-60
2024/01/12 10:23:41;;;;;;;44.00;30.25;;;;;;;;;;10251219;28;20073;-60
2024/01/12 10:28:44;;;;;;;34.78;24.65;;;;;;;;;;10248638;28;20072;-60
2024/01/12 10:33:43;;;;;;;28.92;21.23;;;;;;;;;;10249066;28;20507;-61
2024/01/12 10:38:45;;;;;;;46.55;31.10;;;;;;;;;;10246200;28;20081;-61
2024/01/12 10:43:45;;;;;;;46.15;34.30;;;;;;;;;;10246704;28;20088;-61
2024/01/12 10:48:47;;;;;;;31.20;24.17;;;;;;;;;;10247623;28;20080;-61
2024/01/12 10:53:47;;;;;;;29.88;20.48;;;;;;;;;;10242429;28;20077;-60
2024/01/12 10:58:48;;;;;;;33.95;23.83;;;;;;;;;;10243402;28;20073;-61
2024/01/12 11:03:47;;;;;;;30.80;21.17;;;;;;;;;;10244907;28;20073;-61
2024/01/12 11:08:48;;;;;;;49.17;32.17;;;;;;;;;;10246503;28;20470;-61
2024/01/12 11:13:48;;;;;;;44.78;29.83;;;;;;;;;;10244302;28;20100;-61
2024/01/12 11:18:46;;;;;;;35.90;28.20;;;;;;;;;;10244502;28;20080;-61
2024/01/12 11:23:44;;;;;;;41.17;27.83;;;;;;;;;;10247444;28;20514;-61
2024/01/12 11:28:43;;;;;;;31.25;23.77;;;;;;;;;;10245960;28;20580;-62
2024/01/12 11:33:46;;;;;;;32.70;23.63;;;;;;;;;;10247164;28;20080;-62
2024/01/12 11:38:44;;;;;;;33.55;21.02;;;;;;;;;;10245138;28;20073;-62
2024/01/12 11:43:48;;;;;;;25.98;18.98;;;;;;;;;;10246641;28;20482;-60
2024/01/12 11:48:48;;;;;;;30.38;21.98;;;;;;;;;;10245569;28;20080;-62
2024/01/12 11:53:49;;;;;;;28.70;21.02;;;;;;;;;;10244801;28;20085;-61
2024/01/12 11:58:47;;;;;;;52.35;29.27;;;;;;;;;;10247588;28;20069;-61
2024/01/12 12:03:45;;;;;;;38.88;27.58;;;;;;;;;;10250225;28;20068;-61
2024/01/12 12:08:45;;;;;;;38.45;24.20;;;;;;;;;;10250953;28;20068;-61
2024/01/12 12:13:46;;;;;;;38.50;26.88;;;;;;;;;;10253776;28;20366;-62
2024/01/12 12:18:45;;;;;;;34.00;21.55;;;;;;;;;;10251186;28;20498;-61
2024/01/12 12:23:45;;;;;;;26.92;19.70;;;;;;;;;;10252339;28;20081;-61
2024/01/12 12:28:45;;;;;;;31.77;21.58;;;;;;;;;;10250234;28;20111;-61
2024/01/12 12:33:43;;;;;;;27.25;20.67;;;;;;;;;;10249885;28;20076;-62
2024/01/12 12:38:42;;;;;;;26.90;20.58;;;;;;;;;;10253274;28;20140;-61
2024/01/12 12:43:44;;;;;;;29.42;21.98;;;;;;;;;;10252796;28;20106;-61
2024/01/12 12:48:43;;;;;;;56.85;38.35;;;;;;;;;;10251324;28;20602;-61
2024/01/12 12:53:41;;;;;;;36.35;27.58;;;;;;;;;;10251550;28;20072;-61
2024/01/12 12:58:40;;;;;;;29.60;22.38;;;;;;;;;;10251567;28;20214;-61
2024/01/12 13:03:40;;;;;;;33.50;25.42;;;;;;;;;;10249987;28;20077;-61
2024/01/12 13:08:38;;;;;;;31.63;23.73;;;;;;;;;;10252223;28;20143;-61
2024/01/12 13:13:36;;;;;;;36.80;23.27;;;;;;;;;;10249731;28;20069;-61
2024/01/12 13:18:34;;;;;;;36.45;27.13;;;;;;;;;;10248456;28;20072;-61
2024/01/12 13:23:35;;;;;;;40.15;26.80;;;;;;;;;;10244345;28;20072;-60
2024/01/12 13:28:34;;;;;;;36.60;24.50;;;;;;;;;;10246489;28;20529;-61
2024/01/12 13:33:32;;;;;;;33.63;21.58;;;;;;;;;;10245184;28;20080;-61
2024/01/12 13:38:31;;;;;;;31.02;24.23;;;;;;;;;;10245167;28;20115;-61
2024/01/12 13:43:30;;;;;;;29.63;21.33;;;;;;;;;;10251213;28;20496;-62
2024/01/12 13:48:29;;;;;;;35.17;23.73;;;;;;;;;;10248008;28;20088;-63
2024/01/12 13:53:29;;;;;;;29.85;21.15;;;;;;;;;;10250322;28;20079;-61
2024/01/12 13:58:27;;;;;;;32.95;21.65;;;;;;;;;;10249020;28;20068;-62
2024/01/12 14:03:27;;;;;;;25.52;21.38;;;;;;;;;;10247644;28;20502;-62
2024/01/12 14:08:26;;;;;;;28.63;20.98;;;;;;;;;;10247178;28;20080;-61
2024/01/12 14:13:25;;;;;;;26.80;19.63;;;;;;;;;;10245545;28;20069;-61
2024/01/12 14:18:23;;;;;;;32.88;26.23;;;;;;;;;;10247453;28;20573;-60
2024/01/12 14:23:23;;;;;;;31.67;22.60;;;;;;;;;;10246133;28;20068;-60
2024/01/12 14:28:22;;;;;;;28.08;19.90;;;;;;;;;;10244561;28;20064;-60
2024/01/12 14:33:33;;;;;;;28.63;21.63;;;;;;;;;;10248220;28;20140;-61
2024/01/12 14:38:33;;;;;;;80.32;49.90;;;;;;;;;;10235862;28;20533;-62
2024/01/12 14:43:32;;;;;;;36.30;27.25;;;;;;;;;;10239297;28;20073;-63
2024/01/12 14:48:30;;;;;;;35.15;29.73;;;;;;;;;;10240009;28;20079;-61
2024/01/12 14:53:30;;;;;;;33.95;28.92;;;;;;;;;;10242325;28;20493;-62
2024/01/12 14:58:30;;;;;;;33.55;24.83;;;;;;;;;;10245992;28;20522;-62
2024/01/12 15:03:28;;;;;;;30.60;22.38;;;;;;;;;;10242378;28;20076;-62
2024/01/12 15:08:26;;;;;;;49.80;35.88;;;;;;;;;;10240569;28;20065;-60
2024/01/12 15:13:25;;;;;;;71.45;55.58;;;;;;;;;;10237459;28;20483;-62
2024/01/12 15:18:25;;;;;;;77.63;60.85;;;;;;;;;;10235060;28;20069;-61
2024/01/12 15:23:24;;;;;;;52.63;39.97;;;;;;;;;;10239974;28;20078;-62
2024/01/12 15:28:22;;;;;;;50.63;38.95;;;;;;;;;;10246236;28;20068;-61
2024/01/12 15:33:21;;;;;;;123.85;82.57;;;;;;;;;;10239749;28;20071;-61
2024/01/12 15:38:21;;;;;;;118.60;81.63;;;;;;;;;;10244985;28;20474;-62
2024/01/12 15:43:20;;;;;;;110.07;77.90;;;;;;;;;;10247148;28;20110;-60
2024/01/12 15:48:19;;;;;;;65.13;56.20;;;;;;;;;;10243321;28;20384;-61
2024/01/12 15:53:17;;;;;;;209.90;119.75;;;;;;;;;;10254037;28;20057;-61
2024/01/12 15:58:17;;;;;;;519.67;302.98;;;;;;;;;;10251187;28;20069;-61
2024/01/12 16:03:15;;;;;;;255.95;143.85;;;;;;;;;;10251042;28;20080;-61
2024/01/12 16:08:13;;;;;;;147.82;84.47;;;;;;;;;;10252035;28;20080;-61
2024/01/12 16:13:12;;;;;;;263.70;150.65;;;;;;;;;;10251404;28;20083;-61
2024/01/12 16:18:11;;;;;;;75.18;44.65;;;;;;;;;;10252721;28;20069;-62
2024/01/12 16:23:10;;;;;;;47.13;32.22;;;;;;;;;;10249611;28;20080;-62
2024/01/12 16:28:08;;;;;;;79.60;54.38;;;;;;;;;;10253271;28;20081;-62
2024/01/12 16:33:06;;;;;;;82.43;57.72;;;;;;;;;;10250969;28;20494;-62
2024/01/12 16:38:06;;;;;;;63.72;44.13;;;;;;;;;;10247508;28;20069;-61
2024/01/12 16:43:05;;;;;;;64.88;44.28;;;;;;;;;;10248019;28;20061;-62
2024/01/12 16:48:05;;;;;;;33.97;26.33;;;;;;;;;;10249410;28;20085;-62
2024/01/12 16:53:03;;;;;;;42.83;29.58;;;;;;;;;;10249375;28;20064;-61
2024/01/12 16:58:03;;;;;;;59.88;41.85;;;;;;;;;;10253209;28;20084;-62
2024/01/12 17:03:01;;;;;;;57.92;39.85;;;;;;;;;;10250558;28;20076;-62
2024/01/12 17:07:59;;;;;;;53.55;39.92;;;;;;;;;;10251636;28;20104;-62
2024/01/12 17:12:58;;;;;;;59.22;42.17;;;;;;;;;;10249589;28;20140;-62
2024/01/12 17:17:57;;;;;;;71.00;46.20;;;;;;;;;;10250268;28;20174;-61
2024/01/12 17:22:56;;;;;;;79.43;47.95;;;;;;;;;;10248575;28;20480;-61
2024/01/12 17:27:54;;;;;;;74.55;47.28;;;;;;;;;;10247842;28;20073;-62
2024/01/12 17:32:52;;;;;;;74.55;45.38;;;;;;;;;;10246810;28;20347;-61
2024/01/12 17:37:54;;;;;;;50.60;32.85;;;;;;;;;;10246221;28;20459;-61
2024/01/12 17:42:52;;;;;;;46.28;30.60;;;;;;;;;;10246362;28;20064;-61
2024/01/12 17:47:50;;;;;;;40.55;27.00;;;;;;;;;;10245897;28;20080;-61
2024/01/12 17:52:49;;;;;;;34.58;25.65;;;;;;;;;;10244783;28;20069;-61
2024/01/12 17:57:48;;;;;;;33.58;24.80;;;;;;;;;;10247598;28;20069;-61
2024/01/12 18:02:47;;;;;;;35.78;26.17;;;;;;;;;;10249839;28;20129;-61
2024/01/12 18:07:45;;;;;;;34.20;25.70;;;;;;;;;;10250924;28;20085;-61
2024/01/12 18:12:43;;;;;;;32.72;23.80;;;;;;;;;;10246942;28;20099;-62
2024/01/12 18:17:43;;;;;;;42.55;30.55;;;;;;;;;;10248202;28;20081;-60
2024/01/12 18:22:41;;;;;;;48.95;33.15;;;;;;;;;;10244805;28;20076;-61
2024/01/12 18:27:39;;;;;;;55.10;36.03;;;;;;;;;;10248315;28;20072;-61
2024/01/12 18:32:38;;;;;;;60.35;41.67;;;;;;;;;;10245033;28;20081;-61
2024/01/12 18:37:39;;;;;;;84.07;55.42;;;;;;;;;;10242239;28;20065;-62
2024/01/12 18:42:37;;;;;;;61.33;43.00;;;;;;;;;;10238460;28;20072;-62
2024/01/12 18:47:36;;;;;;;50.05;36.40;;;;;;;;;;10239365;28;20083;-62
2024/01/12 18:52:34;;;;;;;49.92;34.70;;;;;;;;;;10235766;28;20085;-62
2024/01/12 18:57:34;;;;;;;45.33;31.80;;;;;;;;;;10231652;28;20068;-62
2024/01/12 19:02:32;;;;;;;39.85;29.05;;;;;;;;;;10242827;28;20073;-62
2024/01/12 19:07:30;;;;;;;42.53;31.98;;;;;;;;;;10244966;28;20463;-61
2024/01/12 19:12:28;;;;;;;46.33;31.60;;;;;;;;;;10252290;28;20076;-61
2024/01/12 19:17:29;;;;;;;41.97;28.13;;;;;;;;;;10256645;28;20084;-61
2024/01/12 19:22:30;;;;;;;40.97;25.55;;;;;;;;;;10254837;28;20096;-61
2024/01/12 19:27:29;;;;;;;40.33;28.20;;;;;;;;;;10244662;28;20072;-61
2024/01/12 19:32:27;;;;;;;39.08;28.52;;;;;;;;;;10236207;28;20081;-61
2024/01/12 19:37:28;;;;;;;43.03;30.02;;;;;;;;;;10232022;28;20085;-60
2024/01/12 19:42:26;;;;;;;42.03;27.42;;;;;;;;;;10233295;28;20502;-60
2024/01/12 19:47:24;;;;;;;39.25;27.15;;;;;;;;;;10236007;28;20081;-60
2024/01/12 19:52:23;;;;;;;39.88;28.15;;;;;;;;;;10240446;28;20562;-62
2024/01/12 19:57:22;;;;;;;48.42;33.83;;;;;;;;;;10240975;28;20883;-61
2024/01/12 20:02:22;;;;;;;45.95;31.02;;;;;;;;;;10241724;28;20541;-61
2024/01/12 20:07:20;;;;;;;44.47;30.98;;;;;;;;;;10245492;28;20068;-61
2024/01/12 20:12:19;;;;;;;39.97;26.90;;;;;;;;;;10243735;28;20080;-61
2024/01/12 20:17:19;;;;;;;38.95;26.95;;;;;;;;;;10253319;28;20069;-61
2024/01/12 20:22:17;;;;;;;44.55;30.10;;;;;;;;;;10251197;28;20061;-61
2024/01/12 20:27:16;;;;;;;47.67;35.15;;;;;;;;;;10247664;28;20061;-62
2024/01/12 20:32:14;;;;;;;37.25;26.33;;;;;;;;;;10249198;28;20080;-61
2024/01/12 20:37:14;;;;;;;39.45;28.48;;;;;;;;;;10246792;28;20123;-61
2024/01/12 20:42:12;;;;;;;40.88;30.17;;;;;;;;;;10246797;28;20089;-61
2024/01/12 20:47:10;;;;;;;36.95;26.73;;;;;;;;;;10245032;28;20549;-61
2024/01/12 20:52:09;;;;;;;34.97;25.08;;;;;;;;;;10245940;28;20073;-60
2024/01/12 20:57:10;;;;;;;42.28;29.67;;;;;;;;;;10244169;28;20076;-61
2024/01/12 21:02:08;;;;;;;43.42;28.45;;;;;;;;;;10249450;28;20103;-61
2024/01/12 21:07:06;;;;;;;30.92;21.30;;;;;;;;;;10247172;28;20061;-62
2024/01/12 21:12:05;;;;;;;32.80;22.75;;;;;;;;;;10252131;28;20083;-62
2024/01/12 21:17:05;;;;;;;31.90;21.92;;;;;;;;;;10248218;28;20069;-61
2024/01/12 21:22:03;;;;;;;32.42;23.48;;;;;;;;;;10248339;28;20076;-61
2024/01/12 21:27:02;;;;;;;33.90;21.95;;;;;;;;;;10249219;28;20107;-60
2024/01/12 21:32:00;;;;;;;32.33;22.33;;;;;;;;;;10251138;28;20081;-60
2024/01/12 21:37:00;;;;;;;34.28;24.58;;;;;;;;;;10249591;28;20124;-60
2024/01/12 21:41:58;;;;;;;32.00;21.48;;;;;;;;;;10251245;28;20085;-60
2024/01/12 21:46:56;;;;;;;26.90;19.33;;;;;;;;;;10248526;28;20108;-60
2024/01/12 21:51:55;;;;;;;28.52;19.83;;;;;;;;;;10242612;28;20075;-61
2024/01/12 21:56:54;;;;;;;30.35;20.00;;;;;;;;;;10250362;28;20112;-61
2024/01/12 22:01:53;;;;;;;28.33;17.60;;;;;;;;;;10246612;28;20049;-62
2024/01/12 22:06:51;;;;;;;36.50;25.52;;;;;;;;;;10246599;28;20080;-62
2024/01/12 22:11:49;;;;;;;40.60;26.80;;;;;;;;;;10247534;28;20083;-62
2024/01/12 22:16:49;;;;;;;24.48;19.50;;;;;;;;;;10249826;28;20576;-62
2024/01/12 22:21:47;;;;;;;24.67;16.95;;;;;;;;;;10246809;28;20061;-62
2024/01/12 22:26:45;;;;;;;20.63;16.00;;;;;;;;;;10247847;28;20076;-60
2024/01/12 22:31:44;;;;;;;19.48;15.65;;;;;;;;;;10246028;28;20065;-62
2024/01/12 22:36:43;;;;;;;19.60;14.35;;;;;;;;;;10246445;28;20080;-61
2024/01/12 22:41:42;;;;;;;15.27;11.60;;;;;;;;;;10246463;28;20072;-62
2024/01/12 22:46:40;;;;;;;14.30;10.27;;;;;;;;;;10246174;28;20085;-62
2024/01/12 22:51:39;;;;;;;14.15;10.20;;;;;;;;;;10245359;28;20084;-62
2024/01/12 22:56:38;;;;;;;27.95;18.70;;;;;;;;;;10246321;28;20072;-61
2024/01/12 23:01:36;;;;;;;18.90;15.13;;;;;;;;;;10229015;28;20494;-62
2024/01/12 23:06:35;;;;;;;18.25;13.57;;;;;;;;;;10245630;28;20449;-61
2024/01/12 23:11:33;;;;;;;15.77;13.18;;;;;;;;;;10248412;28;20084;-61
2024/01/12 23:16:32;;;;;;;22.95;16.98;;;;;;;;;;10246802;28;20069;-60
2024/01/12 23:21:31;;;;;;;20.85;15.93;;;;;;;;;;10249526;28;20065;-60
2024/01/12 23:26:30;;;;;;;28.92;20.27;;;;;;;;;;10247631;28;20076;-60
2024/01/12 23:31:29;;;;;;;29.27;20.88;;;;;;;;;;10247867;28;20077;-61
2024/01/12 23:36:29;;;;;;;33.65;23.58;;;;;;;;;;10245626;28;20072;-60
2024/01/12 23:41:29;;;;;;;32.28;22.90;;;;;;;;;;10246872;28;20069;-61
2024/01/12 23:46:28;;;;;;;40.20;25.73;;;;;;;;;;10245416;28;20103;-61
2024/01/12 23:51:27;;;;;;;34.22;25.08;;;;;;;;;;10246037;28;20077;-60
2024/01/12 23:56:26;;;;;;;46.80;29.35;;;;;;;;;;10250205;28;20077;-61
